sensor_id;sensor_type;location;lat;lon;timestamp;P1;durP1;ratioP1;P2;durP2;ratioP2
22034;SDS011;11181;51.002;4.356;2024-03-23T00:55:36;8.10;;;2.27;;
22034;SDS011;11181;51.002;4.356;2024-03-23T00:58:02;4.50;;;2.33;;
22034;SDS011;11181;51.002;4.356;2024-03-23T01:00:29;7.77;;;2.70;;
22034;SDS011;11181;51.002;4.356;2024-03-23T01:02:55;7.20;;;2.93;;
22034;SDS011;11181;51.002;4.356;2024-03-23T01:05:22;7.47;;;3.40;;
22034;SDS011;11181;51.002;4.356;2024-03-23T01:07:47;7.77;;;3.10;;
22034;SDS011;11181;51.002;4.356;2024-03-23T01:10:14;4.93;;;2.63;;
22034;SDS011;11181;51.002;4.356;2024-03-23T01:12:42;5.80;;;2.60;;
22034;SDS011;11181;51.002;4.356;2024-03-23T01:15:09;6.53;;;3.23;;
22034;SDS011;11181;51.002;4.356;2024-03-23T01:17:35;8.60;;;3.03;;
22034;SDS011;11181;51.002;4.356;2024-03-23T01:20:01;7.53;;;2.90;;
22034;SDS011;11181;51.002;4.356;2024-03-23T01:22:28;5.33;;;2.53;;
22034;SDS011;11181;51.002;4.356;2024-03-23T01:24:54;6.13;;;2.53;;
22034;SDS011;11181;51.002;4.356;2024-03-23T01:27:20;9.83;;;3.67;;
22034;SDS011;11181;51.002;4.356;2024-03-23T01:29:52;5.97;;;2.83;;
22034;SDS011;11181;51.002;4.356;2024-03-23T01:32:18;8.10;;;3.37;;
22034;SDS011;11181;51.002;4.356;2024-03-23T01:34:45;7.30;;;3.27;;
22034;SDS011;11181;51.002;4.356;2024-03-23T01:37:10;7.90;;;3.53;;
22034;SDS011;11181;51.002;4.356;2024-03-23T01:39:37;7.47;;;2.87;;
22034;SDS011;11181;51.002;4.356;2024-03-23T01:42:03;5.80;;;3.13;;
22034;SDS011;11181;51.002;4.356;2024-03-23T01:44:30;7.47;;;3.13;;
22034;SDS011;11181;51.002;4.356;2024-03-23T01:46:57;7.17;;;2.83;;
22034;SDS011;11181;51.002;4.356;2024-03-23T01:49:24;5.00;;;3.67;;
22034;SDS011;11181;51.002;4.356;2024-03-23T01:51:51;10.27;;;3.73;;
22034;SDS011;11181;51.002;4.356;2024-03-23T01:54:17;8.50;;;3.60;;
22034;SDS011;11181;51.002;4.356;2024-03-23T01:56:44;8.13;;;4.17;;
22034;SDS011;11181;51.002;4.356;2024-03-23T01:59:11;8.77;;;3.67;;
22034;SDS011;11181;51.002;4.356;2024-03-23T02:01:37;7.57;;;3.97;;
22034;SDS011;11181;51.002;4.356;2024-03-23T02:04:08;8.03;;;4.07;;
22034;SDS011;11181;51.002;4.356;2024-03-23T02:06:34;7.43;;;3.90;;
22034;SDS011;11181;51.002;4.356;2024-03-23T02:09:01;12.57;;;4.43;;
22034;SDS011;11181;51.002;4.356;2024-03-23T02:11:28;10.10;;;4.13;;
22034;SDS011;11181;51.002;4.356;2024-03-23T02:13:55;8.07;;;4.17;;
22034;SDS011;11181;51.002;4.356;2024-03-23T02:16:21;11.47;;;5.53;;
22034;SDS011;11181;51.002;4.356;2024-03-23T02:18:48;10.93;;;4.90;;
22034;SDS011;11181;51.002;4.356;2024-03-23T02:21:15;16.80;;;6.27;;
22034;SDS011;11181;51.002;4.356;2024-03-23T02:23:44;9.23;;;4.57;;
22034;SDS011;11181;51.002;4.356;2024-03-23T02:26:09;12.67;;;5.33;;
22034;SDS011;11181;51.002;4.356;2024-03-23T02:28:36;13.60;;;5.23;;
22034;SDS011;11181;51.002;4.356;2024-03-23T02:31:02;8.40;;;5.03;;
22034;SDS011;11181;51.002;4.356;2024-03-23T02:33:30;12.30;;;5.70;;
22034;SDS011;11181;51.002;4.356;2024-03-23T02:35:57;9.97;;;4.80;;
22034;SDS011;11181;51.002;4.356;2024-03-23T02:38:24;9.67;;;5.77;;
22034;SDS011;11181;51.002;4.356;2024-03-23T02:40:52;16.07;;;5.87;;
22034;SDS011;11181;51.002;4.356;2024-03-23T02:43:19;13.80;;;5.07;;
22034;SDS011;11181;51.002;4.356;2024-03-23T02:45:45;10.20;;;4.93;;
22034;SDS011;11181;51.002;4.356;2024-03-23T02:48:12;12.10;;;4.90;;
22034;SDS011;11181;51.002;4.356;2024-03-23T02:50:38;14.87;;;5.33;;
22034;SDS011;11181;51.002;4.356;2024-03-23T02:53:04;16.00;;;5.77;;
22034;SDS011;11181;51.002;4.356;2024-03-23T02:55:31;11.10;;;4.80;;
22034;SDS011;11181;51.002;4.356;2024-03-23T02:57:59;13.40;;;5.77;;
22034;SDS011;11181;51.002;4.356;2024-03-23T03:00:27;10.43;;;4.83;;
22034;SDS011;11181;51.002;4.356;2024-03-23T03:02:56;12.17;;;5.27;;
22034;SDS011;11181;51.002;4.356;2024-03-23T03:05:22;12.57;;;5.10;;
22034;SDS011;11181;51.002;4.356;2024-03-23T03:07:49;11.77;;;5.17;;
22034;SDS011;11181;51.002;4.356;2024-03-23T03:10:15;15.87;;;5.43;;
22034;SDS011;11181;51.002;4.356;2024-03-23T03:12:41;16.53;;;5.90;;
22034;SDS011;11181;51.002;4.356;2024-03-23T03:15:09;9.53;;;4.10;;
22034;SDS011;11181;51.002;4.356;2024-03-23T03:17:36;11.53;;;4.73;;
22034;SDS011;11181;51.002;4.356;2024-03-23T03:20:02;11.13;;;4.43;;
22034;SDS011;11181;51.002;4.356;2024-03-23T03:22:30;9.90;;;4.03;;
22034;SDS011;11181;51.002;4.356;2024-03-23T03:24:55;13.07;;;4.07;;
22034;SDS011;11181;51.002;4.356;2024-03-23T03:27:22;8.40;;;4.40;;
22034;SDS011;11181;51.002;4.356;2024-03-23T03:29:48;9.53;;;4.63;;
22034;SDS011;11181;51.002;4.356;2024-03-23T03:32:17;13.97;;;4.80;;
22034;SDS011;11181;51.002;4.356;2024-03-23T03:34:43;10.67;;;4.07;;
22034;SDS011;11181;51.002;4.356;2024-03-23T03:37:09;13.83;;;4.63;;
22034;SDS011;11181;51.002;4.356;2024-03-23T03:39:35;11.00;;;3.93;;
22034;SDS011;11181;51.002;4.356;2024-03-23T03:42:02;11.97;;;4.43;;
22034;SDS011;11181;51.002;4.356;2024-03-23T03:44:31;11.73;;;4.30;;
22034;SDS011;11181;51.002;4.356;2024-03-23T03:46:58;14.17;;;4.80;;
22034;SDS011;11181;51.002;4.356;2024-03-23T03:49:26;10.23;;;4.47;;
22034;SDS011;11181;51.002;4.356;2024-03-23T03:51:52;10.80;;;4.30;;
22034;SDS011;11181;51.002;4.356;2024-03-23T03:54:18;15.33;;;4.53;;
22034;SDS011;11181;51.002;4.356;2024-03-23T03:56:45;8.93;;;4.53;;
22034;SDS011;11181;51.002;4.356;2024-03-23T03:59:11;9.87;;;4.00;;
22034;SDS011;11181;51.002;4.356;2024-03-23T04:01:38;8.40;;;4.50;;
22034;SDS011;11181;51.002;4.356;2024-03-23T04:04:04;14.43;;;4.77;;
22034;SDS011;11181;51.002;4.356;2024-03-23T04:06:32;13.67;;;5.60;;
22034;SDS011;11181;51.002;4.356;2024-03-23T04:08:58;7.87;;;4.87;;
22034;SDS011;11181;51.002;4.356;2024-03-23T04:11:25;10.43;;;5.60;;
22034;SDS011;11181;51.002;4.356;2024-03-23T04:13:51;16.90;;;6.17;;
22034;SDS011;11181;51.002;4.356;2024-03-23T04:16:24;16.43;;;6.33;;
22034;SDS011;11181;51.002;4.356;2024-03-23T04:18:51;17.03;;;6.87;;
22034;SDS011;11181;51.002;4.356;2024-03-23T04:21:19;11.27;;;5.57;;
22034;SDS011;11181;51.002;4.356;2024-03-23T04:23:46;16.33;;;5.83;;
22034;SDS011;11181;51.002;4.356;2024-03-23T04:26:13;13.30;;;6.47;;
22034;SDS011;11181;51.002;4.356;2024-03-23T04:28:39;12.40;;;5.67;;
22034;SDS011;11181;51.002;4.356;2024-03-23T04:31:06;19.90;;;6.87;;
22034;SDS011;11181;51.002;4.356;2024-03-23T04:33:32;19.40;;;5.80;;
22034;SDS011;11181;51.002;4.356;2024-03-23T04:35:59;12.87;;;5.87;;
22034;SDS011;11181;51.002;4.356;2024-03-23T04:38:25;14.23;;;6.17;;
22034;SDS011;11181;51.002;4.356;2024-03-23T04:40:57;14.77;;;5.27;;
22034;SDS011;11181;51.002;4.356;2024-03-23T04:43:24;16.63;;;6.50;;
22034;SDS011;11181;51.002;4.356;2024-03-23T04:45:51;12.80;;;4.37;;
22034;SDS011;11181;51.002;4.356;2024-03-23T04:48:19;20.33;;;6.07;;
22034;SDS011;11181;51.002;4.356;2024-03-23T04:50:46;12.67;;;5.00;;
22034;SDS011;11181;51.002;4.356;2024-03-23T04:53:14;12.03;;;4.53;;
22034;SDS011;11181;51.002;4.356;2024-03-23T04:55:41;10.00;;;5.10;;
22034;SDS011;11181;51.002;4.356;2024-03-23T04:58:08;16.17;;;6.07;;
22034;SDS011;11181;51.002;4.356;2024-03-23T05:00:35;12.87;;;4.87;;
22034;SDS011;11181;51.002;4.356;2024-03-23T05:03:00;9.67;;;3.60;;
22034;SDS011;11181;51.002;4.356;2024-03-23T05:05:29;11.97;;;4.77;;
22034;SDS011;11181;51.002;4.356;2024-03-23T05:07:55;13.60;;;4.13;;
22034;SDS011;11181;51.002;4.356;2024-03-23T05:10:22;13.23;;;5.07;;
22034;SDS011;11181;51.002;4.356;2024-03-23T05:12:47;14.33;;;4.20;;
22034;SDS011;11181;51.002;4.356;2024-03-23T05:15:16;14.27;;;5.00;;
22034;SDS011;11181;51.002;4.356;2024-03-23T05:17:42;9.50;;;4.20;;
22034;SDS011;11181;51.002;4.356;2024-03-23T05:20:09;12.27;;;4.70;;
22034;SDS011;11181;51.002;4.356;2024-03-23T05:22:35;12.57;;;3.87;;
22034;SDS011;11181;51.002;4.356;2024-03-23T05:25:02;14.30;;;4.03;;
22034;SDS011;11181;51.002;4.356;2024-03-23T05:27:30;7.30;;;4.00;;
22034;SDS011;11181;51.002;4.356;2024-03-23T05:29:57;9.93;;;3.47;;
22034;SDS011;11181;51.002;4.356;2024-03-23T05:32:24;15.53;;;3.73;;
22034;SDS011;11181;51.002;4.356;2024-03-23T05:34:51;13.97;;;4.00;;
22034;SDS011;11181;51.002;4.356;2024-03-23T05:37:20;8.40;;;4.33;;
22034;SDS011;11181;51.002;4.356;2024-03-23T05:39:47;14.90;;;4.40;;
22034;SDS011;11181;51.002;4.356;2024-03-23T05:42:15;12.20;;;4.53;;
22034;SDS011;11181;51.002;4.356;2024-03-23T05:44:43;12.73;;;3.60;;
22034;SDS011;11181;51.002;4.356;2024-03-23T05:47:09;10.17;;;3.77;;
22034;SDS011;11181;51.002;4.356;2024-03-23T05:49:38;7.60;;;3.80;;
22034;SDS011;11181;51.002;4.356;2024-03-23T05:52:04;7.50;;;3.80;;
22034;SDS011;11181;51.002;4.356;2024-03-23T05:54:31;11.23;;;4.90;;
22034;SDS011;11181;51.002;4.356;2024-03-23T05:56:56;12.57;;;5.33;;
22034;SDS011;11181;51.002;4.356;2024-03-23T05:59:24;7.63;;;3.70;;
22034;SDS011;11181;51.002;4.356;2024-03-23T06:01:50;12.10;;;5.10;;
22034;SDS011;11181;51.002;4.356;2024-03-23T06:04:17;11.40;;;3.90;;
22034;SDS011;11181;51.002;4.356;2024-03-23T06:06:44;10.47;;;4.17;;
22034;SDS011;11181;51.002;4.356;2024-03-23T06:09:12;11.87;;;4.17;;
22034;SDS011;11181;51.002;4.356;2024-03-23T06:11:37;12.50;;;3.67;;
22034;SDS011;11181;51.002;4.356;2024-03-23T06:14:04;13.40;;;3.93;;
22034;SDS011;11181;51.002;4.356;2024-03-23T06:16:31;10.20;;;3.83;;
22034;SDS011;11181;51.002;4.356;2024-03-23T06:18:57;9.90;;;4.27;;
22034;SDS011;11181;51.002;4.356;2024-03-23T06:21:23;11.17;;;3.13;;
22034;SDS011;11181;51.002;4.356;2024-03-23T06:23:52;14.37;;;3.17;;
22034;SDS011;11181;51.002;4.356;2024-03-23T06:26:18;6.33;;;2.60;;
22034;SDS011;11181;51.002;4.356;2024-03-23T06:28:45;10.57;;;3.73;;
22034;SDS011;11181;51.002;4.356;2024-03-23T06:31:12;9.30;;;2.83;;
22034;SDS011;11181;51.002;4.356;2024-03-23T06:33:39;12.97;;;3.00;;
22034;SDS011;11181;51.002;4.356;2024-03-23T06:36:06;7.63;;;2.70;;
22034;SDS011;11181;51.002;4.356;2024-03-23T06:38:35;9.83;;;3.20;;
22034;SDS011;11181;51.002;4.356;2024-03-23T06:41:03;11.47;;;2.80;;
22034;SDS011;11181;51.002;4.356;2024-03-23T06:43:33;9.63;;;2.80;;
22034;SDS011;11181;51.002;4.356;2024-03-23T06:45:59;10.20;;;2.97;;
22034;SDS011;11181;51.002;4.356;2024-03-23T06:48:26;6.53;;;2.50;;
22034;SDS011;11181;51.002;4.356;2024-03-23T06:50:55;8.73;;;2.27;;
22034;SDS011;11181;51.002;4.356;2024-03-23T06:53:22;7.57;;;2.63;;
22034;SDS011;11181;51.002;4.356;2024-03-23T06:55:50;6.37;;;2.30;;
22034;SDS011;11181;51.002;4.356;2024-03-23T06:58:20;9.17;;;2.50;;
22034;SDS011;11181;51.002;4.356;2024-03-23T07:00:47;6.90;;;2.70;;
22034;SDS011;11181;51.002;4.356;2024-03-23T07:03:14;14.97;;;2.83;;
22034;SDS011;11181;51.002;4.356;2024-03-23T07:05:40;9.87;;;3.07;;
22034;SDS011;11181;51.002;4.356;2024-03-23T07:08:07;12.70;;;2.73;;
22034;SDS011;11181;51.002;4.356;2024-03-23T07:10:33;9.33;;;3.17;;
22034;SDS011;11181;51.002;4.356;2024-03-23T07:13:00;4.30;;;2.27;;
22034;SDS011;11181;51.002;4.356;2024-03-23T07:15:27;8.07;;;2.57;;
22034;SDS011;11181;51.002;4.356;2024-03-23T07:17:54;5.43;;;1.83;;
22034;SDS011;11181;51.002;4.356;2024-03-23T07:20:21;7.50;;;2.37;;
22034;SDS011;11181;51.002;4.356;2024-03-23T07:22:47;5.87;;;2.73;;
22034;SDS011;11181;51.002;4.356;2024-03-23T07:25:14;17.57;;;3.90;;
22034;SDS011;11181;51.002;4.356;2024-03-23T07:27:42;5.07;;;2.07;;
22034;SDS011;11181;51.002;4.356;2024-03-23T07:30:08;9.37;;;2.17;;
22034;SDS011;11181;51.002;4.356;2024-03-23T07:32:36;10.00;;;2.10;;
22034;SDS011;11181;51.002;4.356;2024-03-23T07:35:02;7.17;;;1.90;;
22034;SDS011;11181;51.002;4.356;2024-03-23T07:37:29;6.33;;;1.73;;
22034;SDS011;11181;51.002;4.356;2024-03-23T07:39:56;7.70;;;1.90;;
22034;SDS011;11181;51.002;4.356;2024-03-23T07:42:24;5.50;;;1.70;;
22034;SDS011;11181;51.002;4.356;2024-03-23T07:44:51;12.20;;;3.07;;
22034;SDS011;11181;51.002;4.356;2024-03-23T07:47:19;6.73;;;3.43;;
22034;SDS011;11181;51.002;4.356;2024-03-23T07:49:48;9.57;;;2.47;;
22034;SDS011;11181;51.002;4.356;2024-03-23T07:52:14;4.03;;;2.00;;
22034;SDS011;11181;51.002;4.356;2024-03-23T07:54:41;9.90;;;2.67;;
22034;SDS011;11181;51.002;4.356;2024-03-23T07:57:06;6.57;;;2.60;;
22034;SDS011;11181;51.002;4.356;2024-03-23T07:59:33;10.47;;;3.23;;
22034;SDS011;11181;51.002;4.356;2024-03-23T08:01:59;12.00;;;2.67;;
22034;SDS011;11181;51.002;4.356;2024-03-23T08:04:27;6.70;;;2.47;;
22034;SDS011;11181;51.002;4.356;2024-03-23T08:06:54;15.03;;;3.33;;
22034;SDS011;11181;51.002;4.356;2024-03-23T08:09:21;8.73;;;3.60;;
22034;SDS011;11181;51.002;4.356;2024-03-23T08:11:47;13.73;;;3.57;;
22034;SDS011;11181;51.002;4.356;2024-03-23T08:14:14;9.97;;;2.70;;
22034;SDS011;11181;51.002;4.356;2024-03-23T08:16:40;9.63;;;2.37;;
22034;SDS011;11181;51.002;4.356;2024-03-23T08:19:13;11.93;;;1.90;;
22034;SDS011;11181;51.002;4.356;2024-03-23T08:21:39;5.23;;;2.10;;
22034;SDS011;11181;51.002;4.356;2024-03-23T08:24:08;6.27;;;2.30;;
22034;SDS011;11181;51.002;4.356;2024-03-23T08:26:33;10.60;;;2.07;;
22034;SDS011;11181;51.002;4.356;2024-03-23T08:29:02;7.23;;;2.13;;
22034;SDS011;11181;51.002;4.356;2024-03-23T08:31:28;3.20;;;1.20;;
22034;SDS011;11181;51.002;4.356;2024-03-23T08:33:55;5.60;;;1.20;;
22034;SDS011;11181;51.002;4.356;2024-03-23T08:36:21;7.00;;;1.97;;
22034;SDS011;11181;51.002;4.356;2024-03-23T08:38:51;9.40;;;2.03;;
22034;SDS011;11181;51.002;4.356;2024-03-23T08:41:22;5.63;;;1.90;;
22034;SDS011;11181;51.002;4.356;2024-03-23T08:43:50;3.90;;;1.43;;
22034;SDS011;11181;51.002;4.356;2024-03-23T08:46:16;3.13;;;1.57;;
22034;SDS011;11181;51.002;4.356;2024-03-23T08:48:44;8.07;;;2.60;;
22034;SDS011;11181;51.002;4.356;2024-03-23T08:51:11;5.50;;;1.93;;
22034;SDS011;11181;51.002;4.356;2024-03-23T08:53:38;3.60;;;1.67;;
22034;SDS011;11181;51.002;4.356;2024-03-23T08:56:05;13.37;;;3.27;;
22034;SDS011;11181;51.002;4.356;2024-03-23T08:58:34;7.87;;;2.60;;
22034;SDS011;11181;51.002;4.356;2024-03-23T09:01:03;7.97;;;1.77;;
22034;SDS011;11181;51.002;4.356;2024-03-23T09:03:30;10.90;;;2.40;;
22034;SDS011;11181;51.002;4.356;2024-03-23T09:05:56;6.33;;;1.80;;
22034;SDS011;11181;51.002;4.356;2024-03-23T09:08:24;7.47;;;1.97;;
22034;SDS011;11181;51.002;4.356;2024-03-23T09:10:50;7.10;;;1.90;;
22034;SDS011;11181;51.002;4.356;2024-03-23T09:13:18;6.53;;;2.30;;
22034;SDS011;11181;51.002;4.356;2024-03-23T09:15:49;10.00;;;2.37;;
22034;SDS011;11181;51.002;4.356;2024-03-23T09:18:21;8.43;;;2.40;;
22034;SDS011;11181;51.002;4.356;2024-03-23T09:20:47;9.17;;;2.40;;
22034;SDS011;11181;51.002;4.356;2024-03-23T09:23:14;5.47;;;1.43;;
22034;SDS011;11181;51.002;4.356;2024-03-23T09:25:40;11.17;;;2.33;;
22034;SDS011;11181;51.002;4.356;2024-03-23T09:28:07;4.97;;;1.57;;
22034;SDS011;11181;51.002;4.356;2024-03-23T09:30:34;5.90;;;1.70;;
22034;SDS011;11181;51.002;4.356;2024-03-23T09:33:02;7.47;;;1.57;;
22034;SDS011;11181;51.002;4.356;2024-03-23T09:35:29;11.60;;;1.63;;
22034;SDS011;11181;51.002;4.356;2024-03-23T09:37:55;7.83;;;2.10;;
22034;SDS011;11181;51.002;4.356;2024-03-23T09:40:22;7.47;;;1.40;;
22034;SDS011;11181;51.002;4.356;2024-03-23T09:42:49;8.63;;;1.60;;
22034;SDS011;11181;51.002;4.356;2024-03-23T09:45:17;6.63;;;1.83;;
22034;SDS011;11181;51.002;4.356;2024-03-23T09:47:47;6.63;;;1.93;;
22034;SDS011;11181;51.002;4.356;2024-03-23T09:50:15;3.70;;;1.60;;
22034;SDS011;11181;51.002;4.356;2024-03-23T09:52:42;6.87;;;1.80;;
22034;SDS011;11181;51.002;4.356;2024-03-23T09:55:08;8.57;;;1.63;;
22034;SDS011;11181;51.002;4.356;2024-03-23T09:57:35;6.07;;;1.77;;
22034;SDS011;11181;51.002;4.356;2024-03-23T10:00:01;6.37;;;1.97;;
22034;SDS011;11181;51.002;4.356;2024-03-23T10:02:28;3.47;;;1.40;;
22034;SDS011;11181;51.002;4.356;2024-03-23T10:04:54;2.90;;;1.60;;
22034;SDS011;11181;51.002;4.356;2024-03-23T10:07:23;4.23;;;1.90;;
22034;SDS011;11181;51.002;4.356;2024-03-23T10:09:50;6.47;;;2.60;;
22034;SDS011;11181;51.002;4.356;2024-03-23T10:12:18;4.90;;;1.43;;
22034;SDS011;11181;51.002;4.356;2024-03-23T10:14:45;3.53;;;1.73;;
22034;SDS011;11181;51.002;4.356;2024-03-23T10:17:13;6.90;;;1.40;;
22034;SDS011;11181;51.002;4.356;2024-03-23T10:19:39;6.83;;;2.10;;
22034;SDS011;11181;51.002;4.356;2024-03-23T10:22:08;6.73;;;2.10;;
22034;SDS011;11181;51.002;4.356;2024-03-23T10:24:35;3.13;;;1.87;;
22034;SDS011;11181;51.002;4.356;2024-03-23T10:27:02;8.07;;;2.30;;
22034;SDS011;11181;51.002;4.356;2024-03-23T10:29:28;5.23;;;1.93;;
22034;SDS011;11181;51.002;4.356;2024-03-23T10:32:00;8.97;;;2.20;;
22034;SDS011;11181;51.002;4.356;2024-03-23T10:34:33;9.40;;;2.10;;
22034;SDS011;11181;51.002;4.356;2024-03-23T10:37:01;9.93;;;2.10;;
22034;SDS011;11181;51.002;4.356;2024-03-23T10:39:28;3.40;;;1.43;;
22034;SDS011;11181;51.002;4.356;2024-03-23T10:41:59;5.13;;;1.50;;
22034;SDS011;11181;51.002;4.356;2024-03-23T10:44:27;3.57;;;1.60;;
22034;SDS011;11181;51.002;4.356;2024-03-23T10:46:56;12.90;;;2.47;;
22034;SDS011;11181;51.002;4.356;2024-03-23T10:49:25;6.10;;;2.67;;
22034;SDS011;11181;51.002;4.356;2024-03-23T10:51:54;6.20;;;2.27;;
22034;SDS011;11181;51.002;4.356;2024-03-23T10:54:21;4.43;;;2.00;;
22034;SDS011;11181;51.002;4.356;2024-03-23T10:56:50;1.97;;;1.77;;
22034;SDS011;11181;51.002;4.356;2024-03-23T10:59:21;6.30;;;2.33;;
22034;SDS011;11181;51.002;4.356;2024-03-23T11:01:55;2.60;;;2.10;;
22034;SDS011;11181;51.002;4.356;2024-03-23T11:04:32;8.63;;;2.30;;
22034;SDS011;11181;51.002;4.356;2024-03-23T11:06:59;5.83;;;2.20;;
22034;SDS011;11181;51.002;4.356;2024-03-23T11:09:38;6.53;;;2.20;;
22034;SDS011;11181;51.002;4.356;2024-03-23T11:12:14;6.40;;;2.63;;
22034;SDS011;11181;51.002;4.356;2024-03-23T11:14:52;4.27;;;2.20;;
22034;SDS011;11181;51.002;4.356;2024-03-23T11:17:20;5.43;;;2.57;;
22034;SDS011;11181;51.002;4.356;2024-03-23T11:19:52;7.27;;;2.60;;
22034;SDS011;11181;51.002;4.356;2024-03-23T11:22:40;5.87;;;3.13;;
22034;SDS011;11181;51.002;4.356;2024-03-23T11:25:13;3.93;;;1.73;;
22034;SDS011;11181;51.002;4.356;2024-03-23T11:27:41;5.67;;;2.37;;
22034;SDS011;11181;51.002;4.356;2024-03-23T11:30:13;5.17;;;2.00;;
22034;SDS011;11181;51.002;4.356;2024-03-23T11:32:42;4.93;;;2.37;;
22034;SDS011;11181;51.002;4.356;2024-03-23T11:35:09;3.37;;;2.10;;
22034;SDS011;11181;51.002;4.356;2024-03-23T11:37:36;7.43;;;1.93;;
22034;SDS011;11181;51.002;4.356;2024-03-23T11:40:18;5.20;;;2.03;;
22034;SDS011;11181;51.002;4.356;2024-03-23T11:42:46;5.57;;;1.70;;
22034;SDS011;11181;51.002;4.356;2024-03-23T11:45:14;5.27;;;1.20;;
22034;SDS011;11181;51.002;4.356;2024-03-23T11:47:41;3.87;;;1.00;;
22034;SDS011;11181;51.002;4.356;2024-03-23T11:50:07;9.23;;;1.67;;
22034;SDS011;11181;51.002;4.356;2024-03-23T11:52:35;4.60;;;1.63;;
22034;SDS011;11181;51.002;4.356;2024-03-23T11:55:04;4.70;;;1.73;;
22034;SDS011;11181;51.002;4.356;2024-03-23T11:57:33;3.60;;;1.27;;
22034;SDS011;11181;51.002;4.356;2024-03-23T11:59:59;5.83;;;1.93;;
22034;SDS011;11181;51.002;4.356;2024-03-23T12:02:27;5.50;;;1.67;;
22034;SDS011;11181;51.002;4.356;2024-03-23T12:04:53;2.80;;;1.13;;
22034;SDS011;11181;51.002;4.356;2024-03-23T12:07:20;4.77;;;1.03;;
22034;SDS011;11181;51.002;4.356;2024-03-23T12:09:47;3.80;;;1.03;;
22034;SDS011;11181;51.002;4.356;2024-03-23T12:12:29;8.93;;;1.03;;
22034;SDS011;11181;51.002;4.356;2024-03-23T12:15:00;8.70;;;1.57;;
22034;SDS011;11181;51.002;4.356;2024-03-23T12:17:30;4.70;;;1.27;;
22034;SDS011;11181;51.002;4.356;2024-03-23T12:19:56;4.37;;;1.50;;
22034;SDS011;11181;51.002;4.356;2024-03-23T12:22:23;6.93;;;1.60;;
22034;SDS011;11181;51.002;4.356;2024-03-23T12:24:49;3.10;;;1.23;;
22034;SDS011;11181;51.002;4.356;2024-03-23T12:27:16;3.87;;;0.83;;
22034;SDS011;11181;51.002;4.356;2024-03-23T12:29:42;6.13;;;1.00;;
22034;SDS011;11181;51.002;4.356;2024-03-23T12:32:11;3.30;;;0.70;;
22034;SDS011;11181;51.002;4.356;2024-03-23T12:34:39;2.87;;;0.70;;
22034;SDS011;11181;51.002;4.356;2024-03-23T12:37:06;2.97;;;0.67;;
22034;SDS011;11181;51.002;4.356;2024-03-23T12:39:32;3.37;;;2.07;;
22034;SDS011;11181;51.002;4.356;2024-03-23T12:42:00;7.43;;;1.10;;
22034;SDS011;11181;51.002;4.356;2024-03-23T12:44:26;6.17;;;1.17;;
22034;SDS011;11181;51.002;4.356;2024-03-23T12:46:53;4.03;;;1.40;;
22034;SDS011;11181;51.002;4.356;2024-03-23T12:49:19;4.10;;;1.37;;
22034;SDS011;11181;51.002;4.356;2024-03-23T12:51:48;5.47;;;1.17;;
22034;SDS011;11181;51.002;4.356;2024-03-23T12:54:19;4.20;;;1.40;;
22034;SDS011;11181;51.002;4.356;2024-03-23T12:56:46;5.87;;;1.10;;
22034;SDS011;11181;51.002;4.356;2024-03-23T12:59:12;4.97;;;1.53;;
22034;SDS011;11181;51.002;4.356;2024-03-23T13:01:39;2.27;;;1.00;;
22034;SDS011;11181;51.002;4.356;2024-03-23T13:04:05;5.03;;;1.13;;
22034;SDS011;11181;51.002;4.356;2024-03-23T13:06:32;3.67;;;1.40;;
22034;SDS011;11181;51.002;4.356;2024-03-23T13:09:00;3.57;;;1.23;;
22034;SDS011;11181;51.002;4.356;2024-03-23T13:11:28;4.27;;;1.23;;
22034;SDS011;11181;51.002;4.356;2024-03-23T13:13:54;5.77;;;1.93;;
22034;SDS011;11181;51.002;4.356;2024-03-23T13:16:21;2.50;;;0.77;;
22034;SDS011;11181;51.002;4.356;2024-03-23T13:18:47;2.13;;;0.97;;
22034;SDS011;11181;51.002;4.356;2024-03-23T13:21:14;1.27;;;0.63;;
22034;SDS011;11181;51.002;4.356;2024-03-23T13:23:40;1.67;;;0.67;;
22034;SDS011;11181;51.002;4.356;2024-03-23T13:26:10;2.87;;;1.27;;
22034;SDS011;11181;51.002;4.356;2024-03-23T13:28:36;1.80;;;0.57;;
22034;SDS011;11181;51.002;4.356;2024-03-23T13:31:03;4.47;;;0.90;;
22034;SDS011;11181;51.002;4.356;2024-03-23T13:33:29;2.00;;;0.70;;
22034;SDS011;11181;51.002;4.356;2024-03-23T13:35:57;3.20;;;0.90;;
22034;SDS011;11181;51.002;4.356;2024-03-23T13:38:23;2.17;;;1.20;;
22034;SDS011;11181;51.002;4.356;2024-03-23T13:40:51;1.83;;;0.87;;
22034;SDS011;11181;51.002;4.356;2024-03-23T13:43:19;5.07;;;1.80;;
22034;SDS011;11181;51.002;4.356;2024-03-23T13:45:46;2.93;;;1.33;;
22034;SDS011;11181;51.002;4.356;2024-03-23T13:48:13;1.90;;;1.10;;
22034;SDS011;11181;51.002;4.356;2024-03-23T13:50:40;3.40;;;1.67;;
22034;SDS011;11181;51.002;4.356;2024-03-23T13:53:06;4.43;;;1.00;;
22034;SDS011;11181;51.002;4.356;2024-03-23T13:55:33;3.07;;;1.07;;
22034;SDS011;11181;51.002;4.356;2024-03-23T13:57:59;4.47;;;1.30;;
22034;SDS011;11181;51.002;4.356;2024-03-23T14:00:27;2.50;;;0.97;;
22034;SDS011;11181;51.002;4.356;2024-03-23T14:02:53;2.37;;;1.07;;
22034;SDS011;11181;51.002;4.356;2024-03-23T14:05:20;5.40;;;1.63;;
22034;SDS011;11181;51.002;4.356;2024-03-23T14:07:45;2.80;;;1.20;;
22034;SDS011;11181;51.002;4.356;2024-03-23T14:10:12;5.53;;;1.43;;
22034;SDS011;11181;51.002;4.356;2024-03-23T14:12:38;5.50;;;1.30;;
22034;SDS011;11181;51.002;4.356;2024-03-23T14:15:07;4.03;;;1.20;;
22034;SDS011;11181;51.002;4.356;2024-03-23T14:17:34;3.80;;;1.60;;
22034;SDS011;11181;51.002;4.356;2024-03-23T14:20:01;3.00;;;1.43;;
22034;SDS011;11181;51.002;4.356;2024-03-23T14:22:30;2.97;;;1.10;;
22034;SDS011;11181;51.002;4.356;2024-03-23T14:24:57;2.13;;;1.10;;
22034;SDS011;11181;51.002;4.356;2024-03-23T14:27:23;6.63;;;1.50;;
22034;SDS011;11181;51.002;4.356;2024-03-23T14:29:50;4.10;;;1.50;;
22034;SDS011;11181;51.002;4.356;2024-03-23T14:32:16;5.40;;;1.73;;
22034;SDS011;11181;51.002;4.356;2024-03-23T14:34:44;2.97;;;1.67;;
22034;SDS011;11181;51.002;4.356;2024-03-23T14:37:10;4.27;;;1.77;;
22034;SDS011;11181;51.002;4.356;2024-03-23T14:39:37;4.23;;;1.50;;
22034;SDS011;11181;51.002;4.356;2024-03-23T14:42:04;7.50;;;1.73;;
22034;SDS011;11181;51.002;4.356;2024-03-23T14:44:33;4.93;;;2.53;;
22034;SDS011;11181;51.002;4.356;2024-03-23T14:46:59;4.77;;;1.83;;
22034;SDS011;11181;51.002;4.356;2024-03-23T14:49:26;3.60;;;1.60;;
22034;SDS011;11181;51.002;4.356;2024-03-23T14:51:53;2.80;;;1.20;;
22034;SDS011;11181;51.002;4.356;2024-03-23T14:54:20;2.73;;;1.10;;
22034;SDS011;11181;51.002;4.356;2024-03-23T14:56:46;8.27;;;1.80;;
22034;SDS011;11181;51.002;4.356;2024-03-23T14:59:13;3.23;;;1.10;;
22034;SDS011;11181;51.002;4.356;2024-03-23T15:01:39;4.03;;;1.17;;
22034;SDS011;11181;51.002;4.356;2024-03-23T15:04:06;3.60;;;1.83;;
22034;SDS011;11181;51.002;4.356;2024-03-23T15:06:33;3.20;;;1.10;;
22034;SDS011;11181;51.002;4.356;2024-03-23T15:09:01;2.77;;;1.10;;
22034;SDS011;11181;51.002;4.356;2024-03-23T15:11:32;3.57;;;0.90;;
22034;SDS011;11181;51.002;4.356;2024-03-23T15:13:59;3.30;;;1.07;;
22034;SDS011;11181;51.002;4.356;2024-03-23T15:16:24;3.53;;;1.00;;
22034;SDS011;11181;51.002;4.356;2024-03-23T15:18:51;5.80;;;1.53;;
22034;SDS011;11181;51.002;4.356;2024-03-23T15:21:17;3.57;;;1.00;;
22034;SDS011;11181;51.002;4.356;2024-03-23T15:23:46;3.27;;;1.63;;
22034;SDS011;11181;51.002;4.356;2024-03-23T15:26:14;2.53;;;1.37;;
22034;SDS011;11181;51.002;4.356;2024-03-23T15:28:41;3.73;;;1.40;;
22034;SDS011;11181;51.002;4.356;2024-03-23T15:31:27;2.67;;;1.60;;
22034;SDS011;11181;51.002;4.356;2024-03-23T15:33:54;6.27;;;1.80;;
22034;SDS011;11181;51.002;4.356;2024-03-23T15:36:20;3.47;;;1.30;;
22034;SDS011;11181;51.002;4.356;2024-03-23T15:38:47;2.00;;;0.90;;